DK-0037 weather

Gilleleje Airstrip
Gilleleje, Zealand, Denmark

Public forecast

Using degrees Celsius for public forecast. Weather courtesy of forecast.io.

Closest aviation weather report (METAR) to Gilleleje Airstrip

Closest report is Ängelholm-Helsingborg Airport, 20.9 nm (38.7 km) ENE. Retrieved 2020/02/24 17:50 UTC (15 minutes ago):

ESTA 241750Z 14005KT CAVOK 03/01 Q1004

Closest aviation forecast (TAF) to Gilleleje Airstrip

Forecast is more than 12 hours old.

Closest forecast is Ljungbyhed Airport, 29.8 nm (55.2 km) E. Retrieved 2016/03/01 09:33 UTC (4 years ago):

TAF ESTL 010830Z 0109/0124 14004KT 9999 SCT025